createdAt,value
2019-01-25T00:01:49.782Z,57.00
2019-01-25T00:04:22.162Z,57.10
2019-01-25T00:06:54.223Z,57.50
2019-01-25T00:09:27.544Z,57.60
2019-01-25T00:12:00.282Z,56.70
2019-01-25T00:14:32.985Z,56.90
2019-01-25T00:17:04.546Z,56.30
2019-01-25T00:19:36.103Z,55.70
2019-01-25T00:22:08.742Z,55.60
2019-01-25T00:24:41.525Z,56.40
2019-01-25T00:27:13.543Z,55.70
2019-01-25T00:29:45.383Z,56.90
2019-01-25T00:32:19.162Z,57.50
2019-01-25T00:34:51.543Z,57.40
2019-01-25T00:37:23.162Z,57.50
2019-01-25T00:39:54.643Z,58.70
2019-01-25T00:42:26.463Z,58.70
2019-01-25T00:44:58.523Z,58.60
2019-01-25T00:47:31.682Z,58.40
2019-01-25T00:50:03.663Z,58.40
2019-01-25T00:52:35.763Z,58.10
2019-01-25T00:55:08.344Z,58.00
2019-01-25T00:57:40.924Z,58.60
2019-01-25T01:00:20.942Z,58.10
2019-01-25T01:02:53.724Z,56.20
2019-01-25T01:05:25.302Z,56.50
2019-01-25T01:07:58.123Z,55.40
2019-01-25T01:10:30.484Z,55.40
2019-01-25T01:13:02.004Z,54.60
2019-01-25T01:15:34.303Z,54.70
2019-01-25T01:18:05.942Z,57.20
2019-01-25T01:20:37.942Z,58.40
2019-01-25T01:23:10.030Z,59.20
2019-01-25T01:25:41.343Z,59.00
2019-01-25T01:28:13.402Z,58.70
2019-01-25T01:30:46.982Z,58.40
2019-01-25T01:33:18.764Z,58.50
2019-01-25T01:35:50.604Z,58.30
2019-01-25T01:38:22.122Z,59.10
2019-01-25T01:40:55.081Z,59.70
2019-01-25T01:43:27.806Z,59.90
2019-01-25T01:46:00.609Z,59.80
2019-01-25T01:48:32.867Z,60.00
2019-01-25T01:51:05.068Z,60.40
2019-01-25T01:53:38.105Z,59.50
2019-01-25T01:56:10.605Z,59.50
2019-01-25T01:58:43.546Z,60.10
2019-01-25T02:01:16.346Z,60.40
2019-01-25T02:03:48.325Z,60.30
2019-01-25T02:06:20.525Z,60.40
2019-01-25T02:08:52.826Z,59.80
2019-01-25T02:11:25.058Z,59.70
2019-01-25T02:13:57.469Z,59.50
2019-01-25T02:16:30.828Z,59.20
2019-01-25T02:19:03.625Z,59.20
2019-01-25T02:21:36.087Z,59.60
2019-01-25T02:24:09.086Z,59.70
2019-01-25T02:26:42.127Z,59.10
2019-01-25T02:29:15.685Z,59.00
2019-01-25T02:31:48.058Z,59.50
2019-01-25T02:34:20.246Z,60.20
2019-01-25T02:36:52.704Z,60.00
2019-01-25T02:39:25.025Z,60.30
2019-01-25T02:41:57.685Z,60.60
2019-01-25T02:44:30.646Z,61.00
2019-01-25T02:49:42.346Z,61.00
2019-01-25T02:52:14.568Z,61.10
2019-01-25T02:54:47.487Z,61.10
2019-01-25T02:57:19.885Z,61.10
2019-01-25T02:59:52.065Z,60.60
2019-01-25T03:02:25.126Z,61.70
2019-01-25T03:04:57.026Z,61.40
2019-01-25T03:07:29.305Z,60.90
2019-01-25T03:10:02.869Z,60.50
2019-01-25T03:12:35.145Z,61.30
2019-01-25T03:15:08.345Z,61.90
2019-01-25T03:17:41.186Z,62.10
2019-01-25T03:20:14.206Z,61.70
2019-01-25T03:22:46.250Z,61.80
2019-01-25T03:25:23.266Z,61.60
2019-01-25T03:27:56.485Z,61.60
2019-01-25T03:30:29.716Z,61.70
2019-01-25T03:33:02.412Z,61.30
2019-01-25T03:35:35.005Z,61.20
2019-01-25T03:38:07.886Z,60.70
2019-01-25T03:40:40.765Z,61.40
2019-01-25T03:43:13.045Z,61.50
2019-01-25T03:45:45.466Z,61.60
2019-01-25T03:48:18.726Z,61.60
2019-01-25T03:50:51.266Z,61.70
2019-01-25T03:53:23.367Z,61.40
2019-01-25T03:55:55.666Z,61.70
2019-01-25T03:58:28.149Z,61.80
2019-01-25T04:01:00.444Z,61.80
2019-01-25T04:03:33.345Z,61.80
2019-01-25T04:06:06.627Z,62.40
2019-01-25T04:08:39.306Z,62.60
2019-01-25T04:11:11.586Z,62.60
2019-01-25T04:13:44.604Z,62.30
2019-01-25T04:16:17.326Z,62.40
2019-01-25T04:18:50.387Z,62.60
2019-01-25T04:21:22.348Z,62.30
2019-01-25T04:23:54.687Z,62.50
2019-01-25T04:26:27.385Z,62.40
2019-01-25T04:28:59.781Z,62.10
2019-01-25T04:31:31.967Z,62.30
2019-01-25T04:34:05.296Z,62.30
2019-01-25T04:36:38.908Z,62.00
2019-01-25T04:39:11.786Z,61.00
2019-01-25T04:41:43.968Z,61.60
2019-01-25T04:44:16.669Z,62.00
2019-01-25T04:46:48.467Z,61.80
2019-01-25T04:49:20.865Z,61.70
2019-01-25T04:51:55.506Z,61.30
2019-01-25T04:54:27.748Z,61.30
2019-01-25T04:57:00.366Z,61.00
2019-01-25T04:59:33.068Z,61.10
2019-01-25T05:02:05.425Z,60.80
2019-01-25T05:04:39.889Z,60.50
2019-01-25T05:07:12.626Z,60.90
2019-01-25T05:09:45.766Z,60.50
2019-01-25T05:12:17.692Z,60.40
2019-01-25T05:14:50.527Z,60.50
2019-01-25T05:17:23.807Z,59.90
2019-01-25T05:19:56.128Z,60.30
2019-01-25T05:22:28.507Z,59.90
2019-01-25T05:25:01.386Z,60.00
2019-01-25T05:27:34.786Z,60.10
2019-01-25T05:30:09.887Z,59.70
2019-01-25T05:32:42.205Z,60.10
2019-01-25T05:35:14.886Z,59.70
2019-01-25T05:37:47.514Z,59.40
2019-01-25T05:40:24.906Z,58.80
2019-01-25T05:42:57.007Z,58.80
2019-01-25T05:45:29.532Z,58.20
2019-01-25T05:48:01.486Z,58.80
2019-01-25T05:50:34.388Z,58.70
2019-01-25T05:53:07.067Z,58.40
2019-01-25T05:55:39.588Z,58.30
2019-01-25T05:58:12.085Z,58.10
2019-01-25T06:00:44.767Z,58.00
2019-01-25T06:03:17.407Z,57.80
2019-01-25T06:05:49.466Z,58.30
2019-01-25T06:08:43.540Z,57.50
2019-01-25T06:11:13.954Z,57.10
2019-01-25T06:13:46.465Z,57.20
2019-01-25T06:16:19.328Z,56.90
2019-01-25T06:18:52.287Z,57.50
2019-01-25T06:21:24.665Z,57.20
2019-01-25T06:23:58.946Z,57.50
2019-01-25T06:26:31.345Z,57.70
2019-01-25T06:29:04.127Z,57.30
2019-01-25T06:31:37.405Z,56.40
2019-01-25T06:34:09.590Z,56.90
2019-01-25T06:36:42.095Z,56.70
2019-01-25T06:39:14.646Z,56.40
2019-01-25T06:41:46.827Z,56.90
2019-01-25T06:44:18.885Z,56.10
2019-01-25T06:46:51.890Z,56.60
2019-01-25T06:49:24.446Z,56.30
2019-01-25T06:51:56.767Z,55.50
2019-01-25T06:54:29.587Z,56.80
2019-01-25T06:57:03.165Z,56.50
2019-01-25T06:59:37.827Z,56.10
2019-01-25T07:02:17.854Z,55.90
2019-01-25T07:04:50.686Z,56.60
2019-01-25T07:07:27.606Z,56.20
2019-01-25T07:09:59.646Z,56.10
2019-01-25T07:12:33.566Z,56.10
2019-01-25T07:15:05.966Z,55.10
2019-01-25T07:17:38.406Z,55.60
2019-01-25T07:20:12.385Z,55.00
2019-01-25T07:22:44.414Z,55.30
2019-01-25T07:25:16.927Z,55.30
2019-01-25T07:27:49.324Z,55.30
2019-01-25T07:30:22.687Z,56.00
2019-01-25T07:32:56.003Z,56.30
2019-01-25T07:35:29.046Z,56.70
2019-01-25T07:38:01.586Z,56.00
2019-01-25T07:40:33.963Z,57.30
2019-01-25T07:43:06.249Z,56.50
2019-01-25T07:45:38.857Z,57.10
2019-01-25T07:48:11.207Z,57.20
2019-01-25T07:50:44.006Z,57.50
2019-01-25T07:53:17.327Z,56.80
2019-01-25T07:55:49.685Z,57.50
2019-01-25T07:58:22.166Z,57.30
2019-01-25T08:00:55.586Z,57.90
2019-01-25T08:03:28.126Z,57.50
2019-01-25T08:06:00.646Z,57.10
2019-01-25T08:08:33.086Z,57.40
2019-01-25T08:11:06.646Z,57.80
2019-01-25T08:13:39.446Z,57.60
2019-01-25T08:16:12.350Z,57.50
2019-01-25T08:18:45.246Z,57.20
2019-01-25T08:21:17.855Z,57.50
2019-01-25T08:23:49.526Z,57.50
2019-01-25T08:26:21.424Z,57.60
2019-01-25T08:28:54.397Z,57.50
2019-01-25T08:31:27.006Z,58.00
2019-01-25T08:33:58.315Z,58.20
2019-01-25T08:36:30.346Z,58.10
2019-01-25T08:39:02.446Z,58.20
2019-01-25T08:41:34.525Z,58.10
2019-01-25T08:44:07.477Z,58.70
2019-01-25T08:46:39.970Z,59.20
2019-01-25T08:49:13.267Z,59.70
2019-01-25T08:51:45.641Z,59.60
2019-01-25T08:54:17.755Z,60.00
2019-01-25T08:56:50.847Z,60.70
2019-01-25T08:59:23.567Z,60.60
2019-01-25T09:01:55.606Z,60.80
2019-01-25T09:04:28.546Z,61.30
2019-01-25T09:07:01.026Z,62.00
2019-01-25T09:09:34.876Z,61.30
2019-01-25T09:12:06.634Z,60.60
2019-01-25T09:14:39.613Z,61.50
2019-01-25T09:17:12.397Z,61.20
2019-01-25T09:19:45.753Z,60.30
2019-01-25T09:22:19.048Z,60.40
2019-01-25T09:24:51.368Z,60.30
2019-01-25T09:27:23.892Z,60.50
2019-01-25T09:29:57.349Z,61.40
2019-01-25T09:32:30.129Z,61.40
2019-01-25T09:35:02.431Z,60.70
2019-01-25T09:37:34.788Z,59.80
2019-01-25T09:40:09.249Z,59.90
2019-01-25T09:42:42.230Z,60.60
2019-01-25T09:45:15.550Z,60.60
2019-01-25T09:47:48.429Z,60.60
2019-01-25T09:50:21.449Z,60.90
2019-01-25T09:52:54.068Z,60.50
2019-01-25T09:55:27.809Z,59.80
2019-01-25T09:58:01.668Z,59.50
2019-01-25T10:00:59.550Z,59.80
2019-01-25T10:03:31.748Z,59.80
2019-01-25T10:06:04.594Z,59.40
2019-01-25T10:08:37.750Z,59.00
2019-01-25T10:11:11.148Z,59.40
2019-01-25T10:13:44.392Z,59.20
2019-01-25T10:16:16.951Z,58.00
2019-01-25T10:18:49.909Z,58.50
2019-01-25T10:21:22.923Z,58.90
2019-01-25T10:23:55.785Z,58.60
2019-01-25T10:26:27.803Z,59.00
2019-01-25T10:29:00.048Z,57.30
2019-01-25T10:31:32.195Z,57.40
2019-01-25T10:34:04.875Z,57.70
2019-01-25T10:36:37.974Z,57.90
2019-01-25T10:39:11.975Z,56.50
2019-01-25T10:41:44.815Z,56.20
2019-01-25T10:44:17.675Z,56.20
2019-01-25T10:46:52.332Z,55.60
2019-01-25T10:49:25.203Z,55.50
2019-01-25T10:51:57.135Z,55.30
2019-01-25T10:54:29.153Z,54.40
2019-01-25T10:57:01.516Z,53.60
2019-01-25T10:59:35.126Z,53.40
2019-01-25T11:02:07.723Z,53.20
2019-01-25T11:04:40.156Z,53.30
2019-01-25T11:07:13.576Z,53.60
2019-01-25T11:09:46.855Z,53.00
2019-01-25T11:12:19.815Z,52.90
2019-01-25T11:14:53.193Z,52.70
2019-01-25T11:17:25.163Z,53.40
2019-01-25T11:19:57.473Z,53.20
2019-01-25T11:22:30.314Z,52.80
2019-01-25T11:25:02.596Z,51.00
2019-01-25T11:27:35.361Z,50.30
2019-01-25T11:30:09.435Z,48.50
2019-01-25T11:32:41.500Z,49.50
2019-01-25T11:35:14.116Z,50.00
2019-01-25T11:37:46.139Z,49.80
2019-01-25T11:40:21.815Z,49.80
2019-01-25T11:42:54.155Z,49.00
2019-01-25T11:45:27.491Z,50.40
2019-01-25T11:48:01.035Z,48.50
2019-01-25T11:50:33.856Z,49.10
2019-01-25T11:53:06.778Z,50.00
2019-01-25T11:55:38.914Z,50.30
2019-01-25T11:58:11.335Z,49.90
2019-01-25T12:00:46.054Z,50.50
2019-01-25T12:03:19.039Z,50.50
2019-01-25T12:05:50.895Z,50.00
2019-01-25T12:08:23.468Z,49.90
2019-01-25T12:10:55.765Z,48.90
2019-01-25T12:13:28.476Z,49.70
2019-01-25T12:16:00.916Z,48.90
2019-01-25T12:18:33.785Z,49.70
2019-01-25T12:21:05.985Z,50.10
2019-01-25T12:23:39.045Z,50.60
2019-01-25T12:26:11.462Z,50.50
2019-01-25T12:28:43.559Z,51.60
2019-01-25T12:31:15.383Z,52.00
2019-01-25T12:33:47.360Z,52.20
2019-01-25T12:36:18.965Z,52.60
2019-01-25T12:38:52.585Z,51.70
2019-01-25T12:41:24.172Z,51.40
2019-01-25T12:43:57.000Z,51.90
2019-01-25T12:46:30.052Z,51.60
2019-01-25T12:49:02.634Z,51.30
2019-01-25T12:51:40.571Z,51.20
2019-01-25T12:54:12.253Z,51.80
2019-01-25T12:56:44.738Z,51.90
2019-01-25T12:59:17.791Z,52.90
2019-01-25T13:01:51.375Z,52.30
2019-01-25T13:04:23.731Z,51.80
2019-01-25T13:06:56.352Z,52.10
2019-01-25T13:09:29.155Z,51.80
2019-01-25T13:12:01.571Z,52.00
2019-01-25T13:14:34.171Z,52.40
2019-01-25T13:17:07.398Z,52.10
2019-01-25T13:19:40.797Z,52.10
2019-01-25T13:22:13.547Z,52.80
2019-01-25T13:24:45.756Z,52.30
2019-01-25T13:27:18.225Z,52.00
2019-01-25T13:29:51.773Z,52.80
2019-01-25T13:32:24.891Z,52.60
2019-01-25T13:34:57.166Z,52.60
2019-01-25T13:37:31.501Z,52.40
2019-01-25T13:40:03.827Z,53.10
2019-01-25T13:42:36.466Z,52.50
2019-01-25T13:45:10.381Z,52.60
2019-01-25T13:47:43.883Z,53.50
2019-01-25T13:50:20.745Z,53.90
2019-01-25T13:52:53.404Z,53.00
2019-01-25T13:55:27.246Z,53.00
2019-01-25T13:57:59.665Z,53.10
2019-01-25T14:00:33.884Z,53.10
2019-01-25T14:03:07.143Z,53.20
2019-01-25T14:05:38.884Z,52.70
2019-01-25T14:08:10.770Z,52.60
2019-01-25T14:10:44.014Z,52.40
2019-01-25T14:13:16.468Z,52.70
2019-01-25T14:15:48.454Z,52.80
2019-01-25T14:18:20.509Z,52.70
2019-01-25T14:20:52.946Z,53.00
2019-01-25T14:23:25.382Z,52.70
2019-01-25T14:25:57.480Z,52.50
2019-01-25T14:28:30.565Z,52.40
2019-01-25T14:31:03.201Z,52.30
2019-01-25T14:33:35.585Z,52.10
2019-01-25T14:36:08.985Z,51.90
2019-01-25T14:38:41.384Z,52.00
2019-01-25T14:41:14.183Z,51.20
2019-01-25T14:43:46.165Z,50.30
2019-01-25T14:46:19.225Z,50.50
2019-01-25T14:48:51.681Z,50.80
2019-01-25T14:51:23.103Z,50.40
2019-01-25T14:53:56.145Z,50.30
2019-01-25T14:56:29.145Z,51.40
2019-01-25T14:59:02.264Z,49.90
2019-01-25T15:01:34.144Z,49.10
2019-01-25T15:04:07.165Z,49.00
2019-01-25T15:06:39.704Z,47.80
2019-01-25T15:09:13.323Z,48.60
2019-01-25T15:11:46.404Z,48.90
2019-01-25T15:14:19.253Z,49.80
2019-01-25T15:16:51.364Z,49.80
2019-01-25T15:19:25.324Z,49.70
2019-01-25T15:21:58.273Z,49.20
2019-01-25T15:24:30.824Z,49.10
2019-01-25T15:27:03.026Z,48.70
2019-01-25T15:29:36.243Z,48.70
2019-01-25T15:32:08.884Z,49.10
2019-01-25T15:34:42.183Z,49.10
2019-01-25T15:37:14.503Z,47.70
2019-01-25T15:39:47.438Z,47.80
2019-01-25T15:42:20.979Z,48.00
2019-01-25T15:44:54.025Z,48.30
2019-01-25T15:47:25.684Z,48.30
2019-01-25T15:49:58.967Z,47.90
2019-01-25T15:52:31.551Z,48.60
2019-01-25T15:55:03.964Z,49.60
2019-01-25T15:57:36.447Z,50.30
2019-01-25T16:00:12.765Z,50.50
2019-01-25T16:02:45.104Z,50.90
2019-01-25T16:05:18.705Z,51.40
2019-01-25T16:07:51.350Z,51.20
2019-01-25T16:10:25.184Z,51.60
2019-01-25T16:12:57.727Z,51.30
2019-01-25T16:15:32.579Z,52.20
2019-01-25T16:18:05.242Z,51.70
2019-01-25T16:20:39.038Z,51.70
2019-01-25T16:23:11.382Z,52.20
2019-01-25T16:25:44.941Z,52.20
2019-01-25T16:28:17.312Z,52.10
2019-01-25T16:30:50.108Z,52.40
2019-01-25T16:33:21.977Z,52.10
2019-01-25T16:35:54.531Z,52.60
2019-01-25T16:38:27.331Z,52.00
2019-01-25T16:40:59.531Z,51.90
2019-01-25T16:43:31.710Z,51.90
2019-01-25T16:46:04.039Z,51.90
2019-01-25T16:48:37.027Z,51.80
2019-01-25T16:51:09.733Z,51.60
2019-01-25T16:53:43.278Z,51.80
2019-01-25T16:56:16.958Z,51.60
2019-01-25T16:58:49.492Z,51.90
2019-01-25T17:01:21.971Z,52.00
2019-01-25T17:03:55.252Z,52.00
2019-01-25T17:06:27.991Z,52.20
2019-01-25T17:09:00.312Z,52.10
2019-01-25T17:11:32.892Z,52.30
2019-01-25T17:14:06.291Z,52.60
2019-01-25T17:16:38.653Z,52.70
2019-01-25T17:19:11.551Z,52.40
2019-01-25T17:21:44.011Z,52.20
2019-01-25T17:24:17.110Z,52.70
2019-01-25T17:26:50.393Z,52.90
2019-01-25T17:29:22.831Z,53.50
2019-01-25T17:31:55.672Z,53.10
2019-01-25T17:34:28.373Z,53.20
2019-01-25T17:37:00.991Z,53.30
2019-01-25T17:39:33.732Z,53.10
2019-01-25T17:42:06.412Z,52.80
2019-01-25T17:44:41.456Z,52.90
2019-01-25T17:47:13.010Z,53.20
2019-01-25T17:49:45.440Z,53.10
2019-01-25T17:52:17.631Z,52.70
2019-01-25T17:54:50.591Z,52.90
2019-01-25T17:57:23.711Z,53.00
2019-01-25T17:59:55.651Z,53.70
2019-01-25T18:02:28.251Z,53.00
2019-01-25T18:05:00.591Z,53.10
2019-01-25T18:07:33.051Z,52.90
2019-01-25T18:10:05.710Z,52.50
2019-01-25T18:12:39.131Z,53.40
2019-01-25T18:15:12.631Z,53.00
2019-01-25T18:17:45.530Z,53.80
2019-01-25T18:20:18.370Z,53.60
2019-01-25T18:22:50.613Z,53.40
2019-01-25T18:25:32.751Z,54.00
2019-01-25T18:28:06.010Z,54.20
2019-01-25T18:30:47.434Z,54.40
2019-01-25T18:33:19.856Z,54.30
2019-01-25T18:35:52.531Z,54.50
2019-01-25T18:38:25.011Z,54.60
2019-01-25T18:40:59.174Z,54.60
2019-01-25T18:43:31.552Z,54.00
2019-01-25T18:46:03.891Z,53.10
2019-01-25T18:48:35.717Z,53.30
2019-01-25T18:51:08.794Z,53.10
2019-01-25T18:53:41.071Z,52.40
2019-01-25T18:56:14.633Z,52.00
2019-01-25T18:58:47.371Z,51.70
2019-01-25T19:01:20.190Z,51.00
2019-01-25T19:03:53.251Z,50.90
2019-01-25T19:06:26.012Z,50.20
2019-01-25T19:08:57.931Z,49.00
2019-01-25T19:11:31.231Z,48.70
2019-01-25T19:14:04.291Z,49.10
2019-01-25T19:16:36.831Z,49.70
2019-01-25T19:19:09.251Z,49.10
2019-01-25T19:21:41.831Z,48.70
2019-01-25T19:24:14.871Z,48.50
2019-01-25T19:26:47.911Z,48.60
2019-01-25T19:29:19.912Z,48.40
2019-01-25T19:31:52.730Z,48.30
2019-01-25T19:34:26.152Z,48.20
2019-01-25T19:36:58.532Z,48.30
2019-01-25T19:39:31.392Z,48.30
2019-01-25T19:42:03.651Z,47.90
2019-01-25T19:44:35.731Z,47.60
2019-01-25T19:47:08.451Z,47.60
2019-01-25T19:49:41.632Z,47.60
2019-01-25T19:52:14.450Z,47.90
2019-01-25T19:54:47.054Z,47.90
2019-01-25T19:57:19.671Z,48.10
2019-01-25T19:59:53.253Z,48.20
2019-01-25T20:02:26.054Z,48.30
2019-01-25T20:04:58.170Z,48.40
2019-01-25T20:07:30.731Z,48.50
2019-01-25T20:10:04.571Z,48.50
2019-01-25T20:12:36.931Z,48.10
2019-01-25T20:15:09.591Z,47.60
2019-01-25T20:17:42.390Z,47.20
2019-01-25T20:20:26.534Z,47.30
2019-01-25T20:22:59.813Z,47.30
2019-01-25T20:25:32.532Z,47.30
2019-01-25T20:28:04.521Z,47.60
2019-01-25T20:30:37.714Z,48.10
2019-01-25T20:33:11.091Z,48.90
2019-01-25T20:35:45.272Z,49.50
2019-01-25T20:38:18.527Z,49.90
2019-01-25T20:40:50.851Z,49.40
2019-01-25T20:43:22.852Z,49.40
2019-01-25T20:45:55.972Z,48.70
2019-01-25T20:48:28.137Z,48.30
2019-01-25T20:51:00.972Z,48.20
2019-01-25T20:53:33.511Z,47.90
2019-01-25T20:56:06.291Z,47.40
2019-01-25T20:58:38.974Z,47.40
2019-01-25T21:01:11.773Z,46.50
2019-01-25T21:03:44.551Z,46.90
2019-01-25T21:06:17.911Z,46.30
2019-01-25T21:08:49.911Z,46.20
2019-01-25T21:11:22.052Z,46.30
2019-01-25T21:13:55.351Z,46.00
2019-01-25T21:16:27.629Z,45.60
2019-01-25T21:19:00.134Z,45.40
2019-01-25T21:21:32.918Z,45.10
2019-01-25T21:24:06.192Z,44.90
2019-01-25T21:26:39.011Z,44.20
2019-01-25T21:29:11.471Z,43.80
2019-01-25T21:31:43.592Z,44.80
2019-01-25T21:34:16.991Z,44.20
2019-01-25T21:36:49.271Z,43.90
2019-01-25T21:39:21.871Z,43.30
2019-01-25T21:41:54.475Z,42.60
2019-01-25T21:44:27.092Z,42.80
2019-01-25T21:46:59.809Z,42.80
2019-01-25T21:49:32.592Z,42.60
2019-01-25T21:52:05.757Z,42.50
2019-01-25T21:54:38.911Z,42.70
2019-01-25T21:57:12.499Z,42.30
2019-01-25T21:59:44.957Z,42.30
2019-01-25T22:02:17.236Z,42.30
2019-01-25T22:04:49.464Z,42.60
2019-01-25T22:07:21.895Z,42.30
2019-01-25T22:09:54.836Z,42.40
2019-01-25T22:12:28.055Z,42.50
2019-01-25T22:15:01.051Z,42.40
2019-01-25T22:17:35.050Z,42.60
2019-01-25T22:20:09.990Z,42.10
2019-01-25T22:22:42.132Z,41.80
2019-01-25T22:25:14.950Z,41.50
2019-01-25T22:27:47.710Z,41.70
2019-01-25T22:30:22.151Z,41.10
2019-01-25T22:32:55.010Z,41.20
2019-01-25T22:35:27.989Z,40.90
2019-01-25T22:38:01.208Z,41.00
2019-01-25T22:40:34.889Z,41.40
2019-01-25T22:43:08.305Z,41.70
2019-01-25T22:45:42.104Z,41.20
2019-01-25T22:48:15.786Z,41.20
2019-01-25T22:50:48.908Z,41.20
2019-01-25T22:53:20.946Z,41.40
2019-01-25T22:55:53.246Z,41.40
2019-01-25T22:58:26.147Z,41.40
2019-01-25T23:01:15.146Z,41.50
2019-01-25T23:04:21.208Z,41.40
2019-01-25T23:07:28.628Z,41.00
2019-01-25T23:10:03.766Z,41.00
2019-01-25T23:12:36.771Z,40.80
2019-01-25T23:15:11.085Z,40.70
2019-01-25T23:17:44.328Z,40.50
2019-01-25T23:20:16.889Z,40.70
2019-01-25T23:22:49.044Z,40.60
2019-01-25T23:25:21.896Z,40.10
2019-01-25T23:27:54.856Z,40.10
2019-01-25T23:30:27.714Z,39.90
2019-01-25T23:33:00.353Z,39.70
2019-01-25T23:35:32.994Z,39.50
2019-01-25T23:38:05.441Z,39.20
2019-01-25T23:40:37.093Z,38.60
2019-01-25T23:43:09.774Z,38.90
2019-01-25T23:45:43.113Z,38.30
2019-01-25T23:48:15.518Z,38.30
2019-01-25T23:50:47.654Z,37.90
2019-01-25T23:53:20.054Z,38.10
2019-01-25T23:55:53.454Z,37.90
2019-01-25T23:58:26.174Z,37.80
